sensor_id;sensor_type;location;lat;lon;timestamp;P1;durP1;ratioP1;P2;durP2;ratioP2
4359;SDS011;2193;47.980;7.660;2022-08-03T00:00:54;6.77;;;2.90;;
4359;SDS011;2193;47.980;7.660;2022-08-03T00:03:20;5.13;;;2.97;;
4359;SDS011;2193;47.980;7.660;2022-08-03T00:05:45;3.23;;;2.70;;
4359;SDS011;2193;47.980;7.660;2022-08-03T00:08:10;4.17;;;3.27;;
4359;SDS011;2193;47.980;7.660;2022-08-03T00:10:35;4.10;;;3.07;;
4359;SDS011;2193;47.980;7.660;2022-08-03T00:13:02;6.10;;;2.70;;
4359;SDS011;2193;47.980;7.660;2022-08-03T00:15:27;4.97;;;2.73;;
4359;SDS011;2193;47.980;7.660;2022-08-03T00:17:52;4.67;;;2.90;;
4359;SDS011;2193;47.980;7.660;2022-08-03T00:20:17;2.93;;;2.63;;
4359;SDS011;2193;47.980;7.660;2022-08-03T00:22:42;2.50;;;2.17;;
4359;SDS011;2193;47.980;7.660;2022-08-03T00:25:08;2.60;;;2.40;;
4359;SDS011;2193;47.980;7.660;2022-08-03T00:27:33;2.73;;;2.50;;
4359;SDS011;2193;47.980;7.660;2022-08-03T00:29:58;4.73;;;3.10;;
4359;SDS011;2193;47.980;7.660;2022-08-03T00:32:23;10.53;;;3.40;;
4359;SDS011;2193;47.980;7.660;2022-08-03T00:34:48;5.20;;;2.70;;
4359;SDS011;2193;47.980;7.660;2022-08-03T00:37:14;4.47;;;3.10;;
4359;SDS011;2193;47.980;7.660;2022-08-03T00:39:39;6.07;;;2.70;;
4359;SDS011;2193;47.980;7.660;2022-08-03T00:42:05;3.77;;;2.87;;
4359;SDS011;2193;47.980;7.660;2022-08-03T00:44:37;4.63;;;3.10;;
4359;SDS011;2193;47.980;7.660;2022-08-03T00:47:03;5.77;;;3.27;;
4359;SDS011;2193;47.980;7.660;2022-08-03T00:49:28;4.53;;;3.17;;
4359;SDS011;2193;47.980;7.660;2022-08-03T00:51:53;2.60;;;2.40;;
4359;SDS011;2193;47.980;7.660;2022-08-03T00:54:18;4.97;;;3.00;;
4359;SDS011;2193;47.980;7.660;2022-08-03T00:56:44;3.90;;;2.90;;
4359;SDS011;2193;47.980;7.660;2022-08-03T00:59:09;3.37;;;3.07;;
4359;SDS011;2193;47.980;7.660;2022-08-03T01:01:35;4.70;;;3.03;;
4359;SDS011;2193;47.980;7.660;2022-08-03T01:04:00;11.33;;;3.00;;
4359;SDS011;2193;47.980;7.660;2022-08-03T01:06:32;5.07;;;2.70;;
4359;SDS011;2193;47.980;7.660;2022-08-03T01:09:43;5.00;;;2.73;;
4359;SDS011;2193;47.980;7.660;2022-08-03T01:11:48;5.30;;;3.20;;
4359;SDS011;2193;47.980;7.660;2022-08-03T01:14:17;9.07;;;3.13;;
4359;SDS011;2193;47.980;7.660;2022-08-03T01:16:45;5.40;;;3.33;;
4359;SDS011;2193;47.980;7.660;2022-08-03T01:21:59;5.63;;;2.87;;
4359;SDS011;2193;47.980;7.660;2022-08-03T01:24:36;3.83;;;2.47;;
4359;SDS011;2193;47.980;7.660;2022-08-03T01:27:14;3.50;;;3.13;;
4359;SDS011;2193;47.980;7.660;2022-08-03T01:32:47;8.43;;;2.93;;
4359;SDS011;2193;47.980;7.660;2022-08-03T01:35:24;5.63;;;3.00;;
4359;SDS011;2193;47.980;7.660;2022-08-03T01:37:51;8.87;;;2.97;;
4359;SDS011;2193;47.980;7.660;2022-08-03T01:40:18;5.33;;;2.93;;
4359;SDS011;2193;47.980;7.660;2022-08-03T01:42:43;4.07;;;2.53;;
4359;SDS011;2193;47.980;7.660;2022-08-03T01:45:10;5.90;;;3.20;;
4359;SDS011;2193;47.980;7.660;2022-08-03T01:47:37;7.87;;;2.70;;
4359;SDS011;2193;47.980;7.660;2022-08-03T01:50:02;8.27;;;3.20;;
4359;SDS011;2193;47.980;7.660;2022-08-03T01:52:29;10.27;;;3.00;;
4359;SDS011;2193;47.980;7.660;2022-08-03T01:54:55;10.83;;;2.97;;
4359;SDS011;2193;47.980;7.660;2022-08-03T01:57:22;4.83;;;3.03;;
4359;SDS011;2193;47.980;7.660;2022-08-03T01:59:48;3.00;;;2.70;;
4359;SDS011;2193;47.980;7.660;2022-08-03T02:02:14;3.30;;;3.00;;
4359;SDS011;2193;47.980;7.660;2022-08-03T02:04:41;5.43;;;3.37;;
4359;SDS011;2193;47.980;7.660;2022-08-03T02:07:07;5.00;;;3.60;;
4359;SDS011;2193;47.980;7.660;2022-08-03T02:09:33;4.47;;;3.60;;
4359;SDS011;2193;47.980;7.660;2022-08-03T02:12:00;3.40;;;3.10;;
4359;SDS011;2193;47.980;7.660;2022-08-03T02:14:26;8.13;;;3.20;;
4359;SDS011;2193;47.980;7.660;2022-08-03T02:16:52;5.70;;;2.53;;
4359;SDS011;2193;47.980;7.660;2022-08-03T02:19:18;4.20;;;3.27;;
4359;SDS011;2193;47.980;7.660;2022-08-03T02:21:44;6.03;;;3.00;;
4359;SDS011;2193;47.980;7.660;2022-08-03T02:24:10;2.97;;;2.77;;
4359;SDS011;2193;47.980;7.660;2022-08-03T02:26:35;4.30;;;3.10;;
4359;SDS011;2193;47.980;7.660;2022-08-03T02:29:04;2.93;;;2.40;;
4359;SDS011;2193;47.980;7.660;2022-08-03T02:31:32;5.43;;;3.23;;
4359;SDS011;2193;47.980;7.660;2022-08-03T02:33:59;16.23;;;3.47;;
4359;SDS011;2193;47.980;7.660;2022-08-03T02:36:27;5.60;;;3.37;;
4359;SDS011;2193;47.980;7.660;2022-08-03T02:38:53;5.93;;;2.90;;
4359;SDS011;2193;47.980;7.660;2022-08-03T02:41:20;5.77;;;2.90;;
4359;SDS011;2193;47.980;7.660;2022-08-03T02:43:47;8.57;;;3.47;;
4359;SDS011;2193;47.980;7.660;2022-08-03T02:46:13;2.80;;;2.60;;
4359;SDS011;2193;47.980;7.660;2022-08-03T02:48:41;3.87;;;2.80;;
4359;SDS011;2193;47.980;7.660;2022-08-03T02:51:07;4.60;;;2.80;;
4359;SDS011;2193;47.980;7.660;2022-08-03T02:53:32;3.60;;;2.90;;
4359;SDS011;2193;47.980;7.660;2022-08-03T02:55:58;4.20;;;3.00;;
4359;SDS011;2193;47.980;7.660;2022-08-03T02:58:24;3.50;;;2.67;;
4359;SDS011;2193;47.980;7.660;2022-08-03T03:00:50;5.70;;;2.80;;
4359;SDS011;2193;47.980;7.660;2022-08-03T03:03:16;3.83;;;2.60;;
4359;SDS011;2193;47.980;7.660;2022-08-03T03:05:41;3.80;;;2.93;;
4359;SDS011;2193;47.980;7.660;2022-08-03T03:08:07;6.10;;;3.13;;
4359;SDS011;2193;47.980;7.660;2022-08-03T03:10:33;3.43;;;2.57;;
4359;SDS011;2193;47.980;7.660;2022-08-03T03:12:59;5.70;;;3.10;;
4359;SDS011;2193;47.980;7.660;2022-08-03T03:15:25;6.90;;;3.70;;
4359;SDS011;2193;47.980;7.660;2022-08-03T03:17:51;4.13;;;3.20;;
4359;SDS011;2193;47.980;7.660;2022-08-03T03:20:17;5.43;;;3.20;;
4359;SDS011;2193;47.980;7.660;2022-08-03T03:22:43;7.63;;;2.70;;
4359;SDS011;2193;47.980;7.660;2022-08-03T03:25:08;6.60;;;3.33;;
4359;SDS011;2193;47.980;7.660;2022-08-03T03:27:34;5.83;;;2.80;;
4359;SDS011;2193;47.980;7.660;2022-08-03T03:29:59;8.20;;;3.40;;
4359;SDS011;2193;47.980;7.660;2022-08-03T03:32:26;6.87;;;3.20;;
4359;SDS011;2193;47.980;7.660;2022-08-03T03:34:51;6.60;;;3.23;;
4359;SDS011;2193;47.980;7.660;2022-08-03T03:37:17;3.93;;;2.90;;
4359;SDS011;2193;47.980;7.660;2022-08-03T03:39:42;4.67;;;3.13;;
4359;SDS011;2193;47.980;7.660;2022-08-03T03:42:07;5.00;;;3.00;;
4359;SDS011;2193;47.980;7.660;2022-08-03T03:44:32;3.80;;;3.40;;
4359;SDS011;2193;47.980;7.660;2022-08-03T03:46:57;8.03;;;3.13;;
4359;SDS011;2193;47.980;7.660;2022-08-03T03:49:23;9.80;;;3.50;;
4359;SDS011;2193;47.980;7.660;2022-08-03T03:51:51;6.60;;;3.70;;
4359;SDS011;2193;47.980;7.660;2022-08-03T03:54:16;6.03;;;3.10;;
4359;SDS011;2193;47.980;7.660;2022-08-03T03:56:41;6.90;;;3.27;;
4359;SDS011;2193;47.980;7.660;2022-08-03T03:59:07;4.00;;;3.60;;
4359;SDS011;2193;47.980;7.660;2022-08-03T04:01:32;4.23;;;3.30;;
4359;SDS011;2193;47.980;7.660;2022-08-03T04:03:57;4.30;;;3.70;;
4359;SDS011;2193;47.980;7.660;2022-08-03T04:06:42;6.93;;;3.63;;
4359;SDS011;2193;47.980;7.660;2022-08-03T04:09:26;10.07;;;3.63;;
4359;SDS011;2193;47.980;7.660;2022-08-03T04:12:10;6.33;;;3.40;;
4359;SDS011;2193;47.980;7.660;2022-08-03T04:14:35;5.10;;;3.27;;
4359;SDS011;2193;47.980;7.660;2022-08-03T04:17:02;3.73;;;3.23;;
4359;SDS011;2193;47.980;7.660;2022-08-03T04:19:35;3.93;;;2.90;;
4359;SDS011;2193;47.980;7.660;2022-08-03T04:22:04;7.50;;;3.40;;
4359;SDS011;2193;47.980;7.660;2022-08-03T04:24:32;4.63;;;3.30;;
4359;SDS011;2193;47.980;7.660;2022-08-03T04:26:58;5.63;;;3.20;;
4359;SDS011;2193;47.980;7.660;2022-08-03T04:29:25;7.77;;;3.83;;
4359;SDS011;2193;47.980;7.660;2022-08-03T04:31:50;10.13;;;5.33;;
4359;SDS011;2193;47.980;7.660;2022-08-03T04:34:16;15.50;;;6.40;;
4359;SDS011;2193;47.980;7.660;2022-08-03T04:36:43;16.40;;;6.00;;
4359;SDS011;2193;47.980;7.660;2022-08-03T04:39:24;15.80;;;7.03;;
4359;SDS011;2193;47.980;7.660;2022-08-03T04:41:52;23.13;;;7.90;;
4359;SDS011;2193;47.980;7.660;2022-08-03T04:44:18;25.33;;;8.30;;
4359;SDS011;2193;47.980;7.660;2022-08-03T04:46:43;10.80;;;5.30;;
4359;SDS011;2193;47.980;7.660;2022-08-03T04:49:09;8.17;;;4.30;;
4359;SDS011;2193;47.980;7.660;2022-08-03T04:51:34;4.30;;;3.53;;
4359;SDS011;2193;47.980;7.660;2022-08-03T04:54:02;5.17;;;3.37;;
4359;SDS011;2193;47.980;7.660;2022-08-03T04:56:28;8.80;;;3.47;;
4359;SDS011;2193;47.980;7.660;2022-08-03T04:58:53;4.50;;;2.87;;
4359;SDS011;2193;47.980;7.660;2022-08-03T05:01:18;3.83;;;2.70;;
4359;SDS011;2193;47.980;7.660;2022-08-03T05:03:44;5.43;;;3.00;;
4359;SDS011;2193;47.980;7.660;2022-08-03T05:06:09;3.73;;;3.20;;
4359;SDS011;2193;47.980;7.660;2022-08-03T05:08:35;6.93;;;3.10;;
4359;SDS011;2193;47.980;7.660;2022-08-03T05:11:00;7.17;;;3.40;;
4359;SDS011;2193;47.980;7.660;2022-08-03T05:13:25;5.90;;;3.73;;
4359;SDS011;2193;47.980;7.660;2022-08-03T05:15:51;4.47;;;3.50;;
4359;SDS011;2193;47.980;7.660;2022-08-03T05:18:16;4.10;;;3.43;;
4359;SDS011;2193;47.980;7.660;2022-08-03T05:20:41;9.90;;;3.17;;
4359;SDS011;2193;47.980;7.660;2022-08-03T05:23:06;8.20;;;3.40;;
4359;SDS011;2193;47.980;7.660;2022-08-03T05:25:32;6.50;;;3.47;;
4359;SDS011;2193;47.980;7.660;2022-08-03T05:27:57;4.57;;;3.53;;
4359;SDS011;2193;47.980;7.660;2022-08-03T05:33:25;8.30;;;3.67;;
4359;SDS011;2193;47.980;7.660;2022-08-03T05:35:50;8.20;;;3.57;;
4359;SDS011;2193;47.980;7.660;2022-08-03T05:38:15;5.87;;;3.60;;
4359;SDS011;2193;47.980;7.660;2022-08-03T05:40:40;8.33;;;4.30;;
4359;SDS011;2193;47.980;7.660;2022-08-03T05:43:05;5.67;;;3.93;;
4359;SDS011;2193;47.980;7.660;2022-08-03T05:45:31;12.23;;;4.43;;
4359;SDS011;2193;47.980;7.660;2022-08-03T05:47:56;17.67;;;4.27;;
4359;SDS011;2193;47.980;7.660;2022-08-03T05:50:21;6.83;;;4.83;;
4359;SDS011;2193;47.980;7.660;2022-08-03T05:52:46;7.17;;;4.63;;
4359;SDS011;2193;47.980;7.660;2022-08-03T05:55:12;14.17;;;4.83;;
4359;SDS011;2193;47.980;7.660;2022-08-03T05:57:37;6.10;;;4.87;;
4359;SDS011;2193;47.980;7.660;2022-08-03T06:00:03;7.80;;;5.50;;
4359;SDS011;2193;47.980;7.660;2022-08-03T06:02:29;7.80;;;5.10;;
4359;SDS011;2193;47.980;7.660;2022-08-03T06:04:55;6.43;;;5.20;;
4359;SDS011;2193;47.980;7.660;2022-08-03T06:07:20;10.30;;;5.43;;
4359;SDS011;2193;47.980;7.660;2022-08-03T06:09:45;8.27;;;5.63;;
4359;SDS011;2193;47.980;7.660;2022-08-03T06:12:10;9.80;;;5.60;;
4359;SDS011;2193;47.980;7.660;2022-08-03T06:14:35;10.80;;;5.40;;
4359;SDS011;2193;47.980;7.660;2022-08-03T06:17:01;5.87;;;4.17;;
4359;SDS011;2193;47.980;7.660;2022-08-03T06:19:26;7.70;;;4.80;;
4359;SDS011;2193;47.980;7.660;2022-08-03T06:21:51;8.47;;;4.70;;
4359;SDS011;2193;47.980;7.660;2022-08-03T06:24:16;10.27;;;4.90;;
4359;SDS011;2193;47.980;7.660;2022-08-03T06:26:41;9.40;;;4.70;;
4359;SDS011;2193;47.980;7.660;2022-08-03T06:29:07;9.33;;;4.23;;
4359;SDS011;2193;47.980;7.660;2022-08-03T06:31:32;7.70;;;5.53;;
4359;SDS011;2193;47.980;7.660;2022-08-03T06:33:57;9.00;;;4.40;;
4359;SDS011;2193;47.980;7.660;2022-08-03T06:36:22;8.27;;;4.30;;
4359;SDS011;2193;47.980;7.660;2022-08-03T06:38:47;6.60;;;4.13;;
4359;SDS011;2193;47.980;7.660;2022-08-03T06:41:13;8.37;;;4.50;;
4359;SDS011;2193;47.980;7.660;2022-08-03T06:43:38;7.90;;;4.07;;
4359;SDS011;2193;47.980;7.660;2022-08-03T06:46:03;8.10;;;4.50;;
4359;SDS011;2193;47.980;7.660;2022-08-03T06:48:32;8.23;;;4.53;;
4359;SDS011;2193;47.980;7.660;2022-08-03T06:50:57;5.10;;;4.20;;
4359;SDS011;2193;47.980;7.660;2022-08-03T06:53:23;4.70;;;4.20;;
4359;SDS011;2193;47.980;7.660;2022-08-03T06:55:48;9.50;;;4.50;;
4359;SDS011;2193;47.980;7.660;2022-08-03T06:58:13;9.10;;;4.67;;
4359;SDS011;2193;47.980;7.660;2022-08-03T07:00:38;7.47;;;5.20;;
4359;SDS011;2193;47.980;7.660;2022-08-03T07:03:03;9.93;;;5.07;;
4359;SDS011;2193;47.980;7.660;2022-08-03T07:05:29;9.53;;;5.07;;
4359;SDS011;2193;47.980;7.660;2022-08-03T07:07:55;6.13;;;5.30;;
4359;SDS011;2193;47.980;7.660;2022-08-03T07:10:21;5.83;;;4.40;;
4359;SDS011;2193;47.980;7.660;2022-08-03T07:12:46;20.90;;;5.60;;
4359;SDS011;2193;47.980;7.660;2022-08-03T07:15:11;5.77;;;4.60;;
4359;SDS011;2193;47.980;7.660;2022-08-03T07:17:36;9.20;;;5.33;;
4359;SDS011;2193;47.980;7.660;2022-08-03T07:20:03;7.60;;;5.50;;
4359;SDS011;2193;47.980;7.660;2022-08-03T07:22:29;10.90;;;5.50;;
4359;SDS011;2193;47.980;7.660;2022-08-03T07:24:54;8.43;;;4.93;;
4359;SDS011;2193;47.980;7.660;2022-08-03T07:27:20;10.80;;;5.13;;
4359;SDS011;2193;47.980;7.660;2022-08-03T07:29:45;7.87;;;5.17;;
4359;SDS011;2193;47.980;7.660;2022-08-03T07:32:10;9.50;;;4.53;;
4359;SDS011;2193;47.980;7.660;2022-08-03T07:34:36;6.47;;;4.87;;
4359;SDS011;2193;47.980;7.660;2022-08-03T07:37:01;6.83;;;5.20;;
4359;SDS011;2193;47.980;7.660;2022-08-03T07:39:26;7.63;;;4.90;;
4359;SDS011;2193;47.980;7.660;2022-08-03T07:41:51;7.70;;;5.67;;
4359;SDS011;2193;47.980;7.660;2022-08-03T07:44:17;5.00;;;4.50;;
4359;SDS011;2193;47.980;7.660;2022-08-03T07:46:42;5.47;;;4.33;;
4359;SDS011;2193;47.980;7.660;2022-08-03T07:49:07;9.70;;;4.70;;
4359;SDS011;2193;47.980;7.660;2022-08-03T07:51:33;8.60;;;5.70;;
4359;SDS011;2193;47.980;7.660;2022-08-03T07:53:58;16.40;;;5.57;;
4359;SDS011;2193;47.980;7.660;2022-08-03T07:56:24;10.33;;;5.97;;
4359;SDS011;2193;47.980;7.660;2022-08-03T07:58:50;16.40;;;6.00;;
4359;SDS011;2193;47.980;7.660;2022-08-03T08:01:15;22.83;;;5.77;;
4359;SDS011;2193;47.980;7.660;2022-08-03T08:03:43;11.37;;;6.20;;
4359;SDS011;2193;47.980;7.660;2022-08-03T08:06:08;11.10;;;6.13;;
4359;SDS011;2193;47.980;7.660;2022-08-03T08:08:33;10.70;;;6.10;;
4359;SDS011;2193;47.980;7.660;2022-08-03T08:10:58;8.67;;;5.27;;
4359;SDS011;2193;47.980;7.660;2022-08-03T08:13:24;14.53;;;5.30;;
4359;SDS011;2193;47.980;7.660;2022-08-03T08:15:49;9.70;;;5.27;;
4359;SDS011;2193;47.980;7.660;2022-08-03T08:18:14;7.37;;;5.17;;
4359;SDS011;2193;47.980;7.660;2022-08-03T08:20:39;19.07;;;5.20;;
4359;SDS011;2193;47.980;7.660;2022-08-03T08:23:05;11.23;;;4.80;;
4359;SDS011;2193;47.980;7.660;2022-08-03T08:25:31;10.60;;;5.03;;
4359;SDS011;2193;47.980;7.660;2022-08-03T08:27:57;8.93;;;4.80;;
4359;SDS011;2193;47.980;7.660;2022-08-03T08:30:22;18.10;;;5.43;;
4359;SDS011;2193;47.980;7.660;2022-08-03T08:32:48;17.10;;;5.90;;
4359;SDS011;2193;47.980;7.660;2022-08-03T08:35:13;12.03;;;4.93;;
4359;SDS011;2193;47.980;7.660;2022-08-03T08:37:39;17.37;;;4.90;;
4359;SDS011;2193;47.980;7.660;2022-08-03T08:40:05;14.83;;;4.63;;
4359;SDS011;2193;47.980;7.660;2022-08-03T08:42:31;15.13;;;4.57;;
4359;SDS011;2193;47.980;7.660;2022-08-03T08:44:56;15.47;;;4.73;;
4359;SDS011;2193;47.980;7.660;2022-08-03T08:47:25;12.70;;;4.70;;
4359;SDS011;2193;47.980;7.660;2022-08-03T08:49:53;9.10;;;4.50;;
4359;SDS011;2193;47.980;7.660;2022-08-03T08:52:23;12.13;;;5.27;;
4359;SDS011;2193;47.980;7.660;2022-08-03T08:54:48;23.20;;;5.53;;
4359;SDS011;2193;47.980;7.660;2022-08-03T08:57:14;8.97;;;4.47;;
4359;SDS011;2193;47.980;7.660;2022-08-03T08:59:39;14.77;;;5.63;;
4359;SDS011;2193;47.980;7.660;2022-08-03T09:02:04;13.70;;;4.50;;
4359;SDS011;2193;47.980;7.660;2022-08-03T09:04:30;8.70;;;4.33;;
4359;SDS011;2193;47.980;7.660;2022-08-03T09:06:55;8.03;;;4.13;;
4359;SDS011;2193;47.980;7.660;2022-08-03T09:09:20;15.13;;;4.73;;
4359;SDS011;2193;47.980;7.660;2022-08-03T09:11:46;6.40;;;4.00;;
4359;SDS011;2193;47.980;7.660;2022-08-03T09:14:12;9.47;;;4.33;;
4359;SDS011;2193;47.980;7.660;2022-08-03T09:16:37;9.40;;;4.23;;
4359;SDS011;2193;47.980;7.660;2022-08-03T09:19:12;5.90;;;4.40;;
4359;SDS011;2193;47.980;7.660;2022-08-03T09:21:38;9.53;;;4.20;;
4359;SDS011;2193;47.980;7.660;2022-08-03T09:24:03;5.67;;;3.40;;
4359;SDS011;2193;47.980;7.660;2022-08-03T09:26:29;3.23;;;2.93;;
4359;SDS011;2193;47.980;7.660;2022-08-03T09:31:42;7.80;;;4.07;;
4359;SDS011;2193;47.980;7.660;2022-08-03T09:34:07;9.40;;;3.33;;
4359;SDS011;2193;47.980;7.660;2022-08-03T09:36:33;6.10;;;3.30;;
4359;SDS011;2193;47.980;7.660;2022-08-03T09:39:02;9.73;;;4.00;;
4359;SDS011;2193;47.980;7.660;2022-08-03T09:41:30;5.60;;;3.73;;
4359;SDS011;2193;47.980;7.660;2022-08-03T09:43:55;4.30;;;3.53;;
4359;SDS011;2193;47.980;7.660;2022-08-03T09:46:21;7.93;;;4.00;;
4359;SDS011;2193;47.980;7.660;2022-08-03T09:48:46;13.30;;;3.83;;
4359;SDS011;2193;47.980;7.660;2022-08-03T09:51:11;10.33;;;3.70;;
4359;SDS011;2193;47.980;7.660;2022-08-03T09:53:42;7.07;;;3.90;;
4359;SDS011;2193;47.980;7.660;2022-08-03T09:56:08;5.13;;;3.80;;
4359;SDS011;2193;47.980;7.660;2022-08-03T09:58:33;8.33;;;4.00;;
4359;SDS011;2193;47.980;7.660;2022-08-03T10:01:08;15.50;;;3.37;;
4359;SDS011;2193;47.980;7.660;2022-08-03T10:03:34;7.17;;;3.63;;
4359;SDS011;2193;47.980;7.660;2022-08-03T10:06:13;12.63;;;3.13;;
4359;SDS011;2193;47.980;7.660;2022-08-03T10:08:39;3.10;;;2.90;;
4359;SDS011;2193;47.980;7.660;2022-08-03T10:11:04;2.80;;;2.50;;
4359;SDS011;2193;47.980;7.660;2022-08-03T10:13:29;3.00;;;2.70;;
4359;SDS011;2193;47.980;7.660;2022-08-03T10:15:54;3.33;;;2.43;;
4359;SDS011;2193;47.980;7.660;2022-08-03T10:18:20;3.30;;;2.40;;
4359;SDS011;2193;47.980;7.660;2022-08-03T10:20:48;3.07;;;2.73;;
4359;SDS011;2193;47.980;7.660;2022-08-03T10:23:13;3.40;;;2.80;;
4359;SDS011;2193;47.980;7.660;2022-08-03T10:25:40;6.23;;;3.20;;
4359;SDS011;2193;47.980;7.660;2022-08-03T10:28:07;4.10;;;3.13;;
4359;SDS011;2193;47.980;7.660;2022-08-03T10:30:34;4.87;;;2.83;;
4359;SDS011;2193;47.980;7.660;2022-08-03T10:33:34;4.73;;;2.90;;
4359;SDS011;2193;47.980;7.660;2022-08-03T10:35:53;4.50;;;3.13;;
4359;SDS011;2193;47.980;7.660;2022-08-03T10:38:21;4.00;;;3.33;;
4359;SDS011;2193;47.980;7.660;2022-08-03T10:40:47;3.73;;;3.33;;
4359;SDS011;2193;47.980;7.660;2022-08-03T10:43:18;3.73;;;3.43;;
4359;SDS011;2193;47.980;7.660;2022-08-03T10:45:43;5.47;;;3.73;;
4359;SDS011;2193;47.980;7.660;2022-08-03T10:48:09;4.87;;;3.93;;
4359;SDS011;2193;47.980;7.660;2022-08-03T10:50:35;5.13;;;3.57;;
4359;SDS011;2193;47.980;7.660;2022-08-03T10:53:02;4.80;;;3.57;;
4359;SDS011;2193;47.980;7.660;2022-08-03T10:58:14;5.40;;;3.67;;
4359;SDS011;2193;47.980;7.660;2022-08-03T11:00:49;4.70;;;3.50;;
4359;SDS011;2193;47.980;7.660;2022-08-03T11:03:17;3.80;;;3.50;;
4359;SDS011;2193;47.980;7.660;2022-08-03T11:05:44;4.60;;;3.33;;
4359;SDS011;2193;47.980;7.660;2022-08-03T11:10:50;5.50;;;3.27;;
4359;SDS011;2193;47.980;7.660;2022-08-03T11:13:20;4.30;;;3.47;;
4359;SDS011;2193;47.980;7.660;2022-08-03T11:15:46;4.03;;;3.30;;
4359;SDS011;2193;47.980;7.660;2022-08-03T11:18:12;7.00;;;3.90;;
4359;SDS011;2193;47.980;7.660;2022-08-03T11:20:51;3.63;;;3.03;;
4359;SDS011;2193;47.980;7.660;2022-08-03T11:23:18;3.40;;;3.10;;
4359;SDS011;2193;47.980;7.660;2022-08-03T11:28:28;4.73;;;3.10;;
4359;SDS011;2193;47.980;7.660;2022-08-03T11:30:53;3.40;;;2.50;;
4359;SDS011;2193;47.980;7.660;2022-08-03T11:33:27;5.60;;;2.90;;
4359;SDS011;2193;47.980;7.660;2022-08-03T11:35:57;2.87;;;2.53;;
4359;SDS011;2193;47.980;7.660;2022-08-03T11:38:23;3.67;;;2.60;;
4359;SDS011;2193;47.980;7.660;2022-08-03T11:40:49;4.83;;;2.53;;
4359;SDS011;2193;47.980;7.660;2022-08-03T11:45:55;4.00;;;2.60;;
4359;SDS011;2193;47.980;7.660;2022-08-03T11:48:21;2.00;;;1.90;;
4359;SDS011;2193;47.980;7.660;2022-08-03T11:50:46;2.73;;;2.53;;
4359;SDS011;2193;47.980;7.660;2022-08-03T11:53:13;6.40;;;2.40;;
4359;SDS011;2193;47.980;7.660;2022-08-03T11:55:39;2.80;;;2.60;;
4359;SDS011;2193;47.980;7.660;2022-08-03T11:58:07;4.27;;;2.80;;
4359;SDS011;2193;47.980;7.660;2022-08-03T12:00:32;4.40;;;2.30;;
4359;SDS011;2193;47.980;7.660;2022-08-03T12:02:59;4.03;;;2.37;;
4359;SDS011;2193;47.980;7.660;2022-08-03T12:05:41;2.33;;;2.10;;
4359;SDS011;2193;47.980;7.660;2022-08-03T12:08:07;4.13;;;2.53;;
4359;SDS011;2193;47.980;7.660;2022-08-03T12:10:33;2.67;;;2.47;;
4359;SDS011;2193;47.980;7.660;2022-08-03T12:12:58;2.40;;;2.20;;
4359;SDS011;2193;47.980;7.660;2022-08-03T12:15:30;6.17;;;2.60;;
4359;SDS011;2193;47.980;7.660;2022-08-03T12:17:58;2.53;;;2.23;;
4359;SDS011;2193;47.980;7.660;2022-08-03T12:20:25;3.63;;;2.90;;
4359;SDS011;2193;47.980;7.660;2022-08-03T12:22:50;2.60;;;2.50;;
4359;SDS011;2193;47.980;7.660;2022-08-03T12:25:20;3.63;;;2.60;;
4359;SDS011;2193;47.980;7.660;2022-08-03T12:27:45;2.20;;;2.10;;
4359;SDS011;2193;47.980;7.660;2022-08-03T12:30:10;2.40;;;2.10;;
4359;SDS011;2193;47.980;7.660;2022-08-03T12:32:36;4.90;;;2.37;;
4359;SDS011;2193;47.980;7.660;2022-08-03T12:35:01;3.27;;;2.23;;
4359;SDS011;2193;47.980;7.660;2022-08-03T12:37:28;2.33;;;2.13;;
4359;SDS011;2193;47.980;7.660;2022-08-03T12:39:54;5.27;;;2.17;;
4359;SDS011;2193;47.980;7.660;2022-08-03T12:42:20;3.10;;;2.10;;
4359;SDS011;2193;47.980;7.660;2022-08-03T12:44:45;4.00;;;2.13;;
4359;SDS011;2193;47.980;7.660;2022-08-03T12:47:13;7.20;;;2.17;;
4359;SDS011;2193;47.980;7.660;2022-08-03T12:49:49;2.30;;;2.10;;
4359;SDS011;2193;47.980;7.660;2022-08-03T12:52:16;2.23;;;1.87;;
4359;SDS011;2193;47.980;7.660;2022-08-03T12:54:41;2.80;;;1.93;;
4359;SDS011;2193;47.980;7.660;2022-08-03T12:57:08;2.00;;;1.90;;
4359;SDS011;2193;47.980;7.660;2022-08-03T12:59:35;2.70;;;1.80;;
4359;SDS011;2193;47.980;7.660;2022-08-03T13:02:03;5.17;;;1.93;;
4359;SDS011;2193;47.980;7.660;2022-08-03T13:04:30;2.00;;;1.57;;
4359;SDS011;2193;47.980;7.660;2022-08-03T13:06:56;1.97;;;1.23;;
4359;SDS011;2193;47.980;7.660;2022-08-03T13:09:22;1.70;;;1.60;;
4359;SDS011;2193;47.980;7.660;2022-08-03T13:12:03;1.53;;;1.30;;
4359;SDS011;2193;47.980;7.660;2022-08-03T13:14:28;1.30;;;1.30;;
4359;SDS011;2193;47.980;7.660;2022-08-03T13:16:53;1.50;;;1.40;;
4359;SDS011;2193;47.980;7.660;2022-08-03T13:19:18;4.97;;;1.50;;
4359;SDS011;2193;47.980;7.660;2022-08-03T13:21:43;2.70;;;1.63;;
4359;SDS011;2193;47.980;7.660;2022-08-03T13:24:08;4.00;;;1.80;;
4359;SDS011;2193;47.980;7.660;2022-08-03T13:26:34;1.10;;;1.10;;
4359;SDS011;2193;47.980;7.660;2022-08-03T13:28:59;1.30;;;1.30;;
4359;SDS011;2193;47.980;7.660;2022-08-03T13:31:24;1.43;;;1.43;;
4359;SDS011;2193;47.980;7.660;2022-08-03T13:33:49;1.40;;;1.30;;
4359;SDS011;2193;47.980;7.660;2022-08-03T13:36:14;2.00;;;1.50;;
4359;SDS011;2193;47.980;7.660;2022-08-03T13:38:39;1.73;;;1.57;;
4359;SDS011;2193;47.980;7.660;2022-08-03T13:41:05;3.23;;;1.70;;
4359;SDS011;2193;47.980;7.660;2022-08-03T13:43:30;1.50;;;1.50;;
4359;SDS011;2193;47.980;7.660;2022-08-03T13:45:55;1.40;;;1.40;;
4359;SDS011;2193;47.980;7.660;2022-08-03T13:48:20;1.73;;;1.63;;
4359;SDS011;2193;47.980;7.660;2022-08-03T13:50:45;1.60;;;1.50;;
4359;SDS011;2193;47.980;7.660;2022-08-03T13:53:11;1.40;;;1.40;;
4359;SDS011;2193;47.980;7.660;2022-08-03T13:55:36;1.50;;;1.50;;
4359;SDS011;2193;47.980;7.660;2022-08-03T13:58:01;1.23;;;1.23;;
4359;SDS011;2193;47.980;7.660;2022-08-03T14:00:26;1.80;;;1.43;;
4359;SDS011;2193;47.980;7.660;2022-08-03T14:02:51;1.90;;;1.30;;
4359;SDS011;2193;47.980;7.660;2022-08-03T14:05:17;1.43;;;1.43;;
4359;SDS011;2193;47.980;7.660;2022-08-03T14:07:42;1.40;;;1.40;;
4359;SDS011;2193;47.980;7.660;2022-08-03T14:10:07;1.60;;;1.50;;
4359;SDS011;2193;47.980;7.660;2022-08-03T14:12:33;1.30;;;1.30;;
4359;SDS011;2193;47.980;7.660;2022-08-03T14:14:58;1.57;;;1.57;;
4359;SDS011;2193;47.980;7.660;2022-08-03T14:17:24;1.63;;;1.53;;
4359;SDS011;2193;47.980;7.660;2022-08-03T14:19:49;1.30;;;1.30;;
4359;SDS011;2193;47.980;7.660;2022-08-03T14:22:14;3.97;;;1.77;;
4359;SDS011;2193;47.980;7.660;2022-08-03T14:24:39;1.30;;;1.30;;
4359;SDS011;2193;47.980;7.660;2022-08-03T14:27:04;1.63;;;1.53;;
4359;SDS011;2193;47.980;7.660;2022-08-03T14:29:30;1.83;;;1.40;;
4359;SDS011;2193;47.980;7.660;2022-08-03T14:31:55;1.90;;;1.80;;
4359;SDS011;2193;47.980;7.660;2022-08-03T14:34:20;4.30;;;1.53;;
4359;SDS011;2193;47.980;7.660;2022-08-03T14:36:45;2.50;;;1.53;;
4359;SDS011;2193;47.980;7.660;2022-08-03T14:39:11;1.60;;;1.50;;
4359;SDS011;2193;47.980;7.660;2022-08-03T14:41:36;1.90;;;1.50;;
4359;SDS011;2193;47.980;7.660;2022-08-03T14:44:01;1.83;;;1.40;;
4359;SDS011;2193;47.980;7.660;2022-08-03T14:46:26;1.27;;;1.27;;
4359;SDS011;2193;47.980;7.660;2022-08-03T14:48:52;1.87;;;1.77;;
4359;SDS011;2193;47.980;7.660;2022-08-03T14:51:17;1.47;;;1.40;;
4359;SDS011;2193;47.980;7.660;2022-08-03T14:53:43;1.60;;;1.50;;
4359;SDS011;2193;47.980;7.660;2022-08-03T14:56:08;1.53;;;1.23;;
4359;SDS011;2193;47.980;7.660;2022-08-03T14:58:33;1.33;;;1.33;;
4359;SDS011;2193;47.980;7.660;2022-08-03T15:00:59;1.20;;;1.20;;
4359;SDS011;2193;47.980;7.660;2022-08-03T15:03:24;1.10;;;1.10;;
4359;SDS011;2193;47.980;7.660;2022-08-03T15:05:53;1.93;;;1.10;;
4359;SDS011;2193;47.980;7.660;2022-08-03T15:08:19;1.37;;;1.30;;
4359;SDS011;2193;47.980;7.660;2022-08-03T15:10:44;1.20;;;1.10;;
4359;SDS011;2193;47.980;7.660;2022-08-03T15:13:09;1.27;;;1.20;;
4359;SDS011;2193;47.980;7.660;2022-08-03T15:15:35;1.10;;;1.10;;
4359;SDS011;2193;47.980;7.660;2022-08-03T15:18:00;1.20;;;1.20;;
4359;SDS011;2193;47.980;7.660;2022-08-03T15:20:25;2.00;;;1.30;;
4359;SDS011;2193;47.980;7.660;2022-08-03T15:22:51;1.20;;;1.20;;
4359;SDS011;2193;47.980;7.660;2022-08-03T15:25:16;1.10;;;1.10;;
4359;SDS011;2193;47.980;7.660;2022-08-03T15:27:41;1.37;;;1.37;;
4359;SDS011;2193;47.980;7.660;2022-08-03T15:30:06;1.07;;;1.07;;